createdAt,value
2018-07-14T00:01:28.669Z,4.40
2018-07-14T00:03:57.334Z,4.57
2018-07-14T00:06:25.937Z,3.90
2018-07-14T00:08:54.594Z,4.33
2018-07-14T00:11:23.208Z,4.20
2018-07-14T00:13:51.869Z,4.63
2018-07-14T00:16:20.587Z,4.37
2018-07-14T00:18:49.217Z,4.03
2018-07-14T00:21:17.868Z,4.80
2018-07-14T00:23:46.507Z,4.23
2018-07-14T00:26:18.309Z,5.13
2018-07-14T00:28:47.463Z,5.03
2018-07-14T00:31:16.290Z,4.20
2018-07-14T00:33:44.929Z,4.57
2018-07-14T00:36:13.533Z,4.67
2018-07-14T00:38:42.235Z,4.33
2018-07-14T00:41:10.868Z,4.00
2018-07-14T00:43:39.489Z,4.33
2018-07-14T00:46:08.101Z,4.07
2018-07-14T00:48:36.710Z,4.00
2018-07-14T00:51:06.081Z,4.60
2018-07-14T00:53:34.686Z,4.53
2018-07-14T00:56:03.357Z,4.27
2018-07-14T00:58:32.090Z,4.70
2018-07-14T01:01:00.697Z,5.00
2018-07-14T01:03:29.310Z,4.70
2018-07-14T01:05:57.883Z,4.97
2018-07-14T01:08:26.505Z,5.00
2018-07-14T01:10:56.593Z,5.10
2018-07-14T01:13:25.901Z,4.70
2018-07-14T01:15:54.542Z,4.90
2018-07-14T01:18:23.160Z,5.53
2018-07-14T01:20:51.732Z,4.90
2018-07-14T01:23:20.337Z,4.50
2018-07-14T01:25:48.943Z,4.87
2018-07-14T01:28:17.630Z,5.37
2018-07-14T01:30:46.320Z,5.10
2018-07-14T01:33:14.994Z,5.00
2018-07-14T01:35:43.589Z,4.50
2018-07-14T01:38:12.228Z,5.00
2018-07-14T01:40:40.821Z,5.40
2018-07-14T01:43:09.470Z,4.53
2018-07-14T01:45:38.091Z,5.03
2018-07-14T01:48:06.749Z,5.00
2018-07-14T01:50:35.370Z,4.53
2018-07-14T01:53:03.978Z,5.20
2018-07-14T01:55:32.628Z,4.67
2018-07-14T01:58:01.344Z,4.80
2018-07-14T02:00:29.976Z,4.40
2018-07-14T02:02:58.564Z,5.20
2018-07-14T02:05:27.247Z,5.00
2018-07-14T02:07:55.855Z,5.10
2018-07-14T02:10:24.481Z,4.40
2018-07-14T02:12:53.048Z,5.20
2018-07-14T02:15:21.906Z,4.87
2018-07-14T02:17:50.540Z,4.97
2018-07-14T02:20:19.177Z,4.90
2018-07-14T02:22:47.781Z,4.13
2018-07-14T02:25:17.113Z,5.03
2018-07-14T02:27:46.435Z,5.23
2018-07-14T02:30:15.129Z,5.20
2018-07-14T02:32:43.733Z,4.90
2018-07-14T02:35:12.525Z,5.20
2018-07-14T02:37:41.286Z,4.87
2018-07-14T02:40:09.871Z,4.93
2018-07-14T02:42:38.794Z,4.90
2018-07-14T02:45:07.686Z,5.10
2018-07-14T02:47:36.501Z,5.03
2018-07-14T02:50:05.203Z,5.23
2018-07-14T02:52:33.974Z,5.50
2018-07-14T02:55:02.746Z,4.43
2018-07-14T02:57:31.393Z,4.40
2018-07-14T03:00:00.073Z,4.97
2018-07-14T03:02:28.675Z,5.57
2018-07-14T03:04:57.289Z,4.97
2018-07-14T03:07:25.893Z,5.03
2018-07-14T03:09:54.513Z,5.00
2018-07-14T03:12:23.117Z,5.63
2018-07-14T03:14:51.761Z,4.60
2018-07-14T03:17:20.441Z,4.57
2018-07-14T03:19:49.061Z,4.77
2018-07-14T03:22:17.686Z,4.67
2018-07-14T03:24:46.304Z,5.30
2018-07-14T03:27:14.912Z,4.83
2018-07-14T03:29:43.582Z,4.50
2018-07-14T03:32:12.906Z,4.80
2018-07-14T03:34:41.622Z,5.07
2018-07-14T03:37:10.213Z,5.10
2018-07-14T03:39:38.846Z,5.37
2018-07-14T03:42:07.483Z,4.87
2018-07-14T03:44:36.018Z,5.27
2018-07-14T03:47:04.690Z,4.70
2018-07-14T03:49:33.271Z,4.97
2018-07-14T03:52:01.840Z,5.37
2018-07-14T03:54:31.393Z,5.40
2018-07-14T03:57:00.059Z,5.33
2018-07-14T03:59:28.670Z,5.83
2018-07-14T04:01:57.263Z,4.87
2018-07-14T04:04:25.960Z,4.93
2018-07-14T04:06:55.975Z,4.30
2018-07-14T04:09:24.618Z,5.17
2018-07-14T04:11:53.218Z,4.70
2018-07-14T04:14:21.846Z,4.53
2018-07-14T04:16:50.473Z,4.10
2018-07-14T04:19:19.110Z,5.10
2018-07-14T04:21:47.801Z,5.20
2018-07-14T04:24:16.831Z,4.73
2018-07-14T04:26:45.469Z,6.07
2018-07-14T04:29:14.868Z,5.40
2018-07-14T04:31:43.559Z,4.90
2018-07-14T04:34:12.153Z,5.10
2018-07-14T04:36:40.816Z,4.90
2018-07-14T04:39:09.433Z,5.50
2018-07-14T04:41:38.074Z,4.60
2018-07-14T04:44:06.765Z,4.90
2018-07-14T04:46:35.387Z,4.90
2018-07-14T04:49:04.006Z,6.10
2018-07-14T04:51:32.587Z,6.20
2018-07-14T04:54:01.326Z,5.67
2018-07-14T04:56:29.950Z,4.30
2018-07-14T04:58:58.626Z,4.60
2018-07-14T05:01:27.256Z,5.47
2018-07-14T05:03:55.855Z,4.37
2018-07-14T05:06:24.521Z,5.43
2018-07-14T05:08:53.080Z,4.60
2018-07-14T05:11:21.693Z,4.20
2018-07-14T05:13:50.338Z,4.20
2018-07-14T05:16:19.055Z,4.83
2018-07-14T05:18:47.772Z,4.50
2018-07-14T05:21:16.522Z,4.70
2018-07-14T05:23:45.233Z,4.67
2018-07-14T05:26:14.909Z,4.53
2018-07-14T05:28:43.654Z,4.83
2018-07-14T05:31:12.170Z,4.10
2018-07-14T05:33:41.055Z,3.63
2018-07-14T05:36:09.686Z,4.80
2018-07-14T05:38:38.289Z,5.33
2018-07-14T05:41:06.914Z,4.77
2018-07-14T05:43:35.537Z,4.13
2018-07-14T05:46:04.160Z,4.57
2018-07-14T05:48:32.777Z,4.23
2018-07-14T05:51:01.527Z,4.77
2018-07-14T05:53:30.170Z,4.97
2018-07-14T05:55:59.019Z,4.27
2018-07-14T05:58:27.633Z,4.70
2018-07-14T06:00:57.304Z,4.10
2018-07-14T06:03:26.054Z,4.30
2018-07-14T06:05:54.725Z,4.40
2018-07-14T06:08:23.442Z,4.87
2018-07-14T06:10:52.053Z,4.40
2018-07-14T06:13:20.757Z,4.57
2018-07-14T06:15:49.660Z,4.73
2018-07-14T06:18:18.294Z,4.47
2018-07-14T06:20:47.285Z,4.50
2018-07-14T06:23:15.884Z,4.77
2018-07-14T06:25:44.685Z,4.07
2018-07-14T06:28:13.328Z,4.30
2018-07-14T06:30:43.566Z,4.07
2018-07-14T06:33:12.205Z,4.70
2018-07-14T06:35:40.829Z,4.50
2018-07-14T06:38:09.522Z,4.03
2018-07-14T06:40:38.164Z,5.20
2018-07-14T06:43:06.886Z,5.20
2018-07-14T06:45:35.467Z,4.57
2018-07-14T06:48:04.139Z,4.10
2018-07-14T06:50:32.849Z,5.00
2018-07-14T06:53:01.728Z,4.20
2018-07-14T06:55:30.999Z,4.70
2018-07-14T06:58:00.861Z,4.53
2018-07-14T07:00:29.507Z,4.43
2018-07-14T07:02:58.168Z,4.83
2018-07-14T07:05:26.841Z,4.93
2018-07-14T07:07:55.501Z,4.30
2018-07-14T07:10:24.091Z,4.33
2018-07-14T07:12:52.808Z,5.07
2018-07-14T07:15:21.649Z,5.10
2018-07-14T07:17:50.280Z,4.67
2018-07-14T07:20:18.937Z,4.83
2018-07-14T07:22:48.307Z,4.63
2018-07-14T07:25:16.915Z,5.03
2018-07-14T07:27:45.541Z,4.40
2018-07-14T07:30:14.229Z,4.90
2018-07-14T07:32:42.805Z,4.57
2018-07-14T07:35:11.474Z,4.40
2018-07-14T07:37:40.136Z,4.80
2018-07-14T07:40:08.829Z,4.77
2018-07-14T07:42:37.484Z,4.50
2018-07-14T07:45:06.517Z,5.27
2018-07-14T07:47:35.264Z,4.77
2018-07-14T07:50:03.952Z,4.77
2018-07-14T07:52:32.725Z,4.23
2018-07-14T07:55:01.469Z,4.83
2018-07-14T07:57:30.139Z,4.77
2018-07-14T07:59:58.852Z,5.57
2018-07-14T08:02:27.589Z,5.30
2018-07-14T08:04:56.254Z,5.00
2018-07-14T08:07:24.922Z,5.00
2018-07-14T08:09:53.545Z,5.00
2018-07-14T08:12:22.185Z,4.37
2018-07-14T08:14:50.849Z,5.50
2018-07-14T08:17:19.582Z,4.50
2018-07-14T08:19:48.273Z,4.90
2018-07-14T08:22:16.963Z,5.27
2018-07-14T08:24:45.609Z,4.80
2018-07-14T08:27:14.234Z,5.30
2018-07-14T08:29:43.041Z,4.97
2018-07-14T08:32:11.644Z,5.03
2018-07-14T08:34:40.430Z,5.27
2018-07-14T08:37:09.158Z,5.10
2018-07-14T08:39:38.289Z,4.90
2018-07-14T08:42:07.229Z,5.37
2018-07-14T08:44:36.106Z,5.03
2018-07-14T08:47:04.786Z,4.40
2018-07-14T08:49:33.481Z,4.83
2018-07-14T08:52:02.185Z,5.10
2018-07-14T08:54:30.824Z,5.30
2018-07-14T08:56:59.466Z,4.53
2018-07-14T08:59:28.230Z,4.80
2018-07-14T09:01:57.000Z,5.23
2018-07-14T09:04:25.848Z,4.60
2018-07-14T09:06:54.493Z,5.13
2018-07-14T09:09:23.252Z,4.80
2018-07-14T09:11:52.030Z,5.30
2018-07-14T09:14:21.662Z,5.00
2018-07-14T09:16:50.439Z,5.07
2018-07-14T09:19:21.442Z,5.30
2018-07-14T09:21:50.085Z,5.50
2018-07-14T09:24:18.725Z,5.20
2018-07-14T09:26:47.561Z,5.63
2018-07-14T09:29:16.289Z,5.63
2018-07-14T09:31:44.956Z,5.50
2018-07-14T09:34:13.676Z,5.43
2018-07-14T09:36:42.534Z,5.63
2018-07-14T09:39:11.206Z,5.60
2018-07-14T09:41:39.925Z,5.57
2018-07-14T09:44:08.582Z,5.27
2018-07-14T09:46:37.298Z,5.40
2018-07-14T09:49:05.988Z,5.40
2018-07-14T09:51:34.717Z,6.03
2018-07-14T09:54:03.415Z,5.50
2018-07-14T09:56:32.950Z,5.53
2018-07-14T09:59:01.635Z,5.80
2018-07-14T10:01:30.303Z,5.63
2018-07-14T10:03:58.993Z,5.50
2018-07-14T10:06:27.639Z,5.50
2018-07-14T10:08:56.298Z,5.37
2018-07-14T10:11:24.950Z,5.57
2018-07-14T10:13:53.652Z,5.13
2018-07-14T10:16:22.318Z,5.27
2018-07-14T10:18:51.040Z,5.10
2018-07-14T10:21:19.657Z,6.30
2018-07-14T10:23:48.277Z,5.30
2018-07-14T10:26:16.933Z,5.50
2018-07-14T10:28:45.561Z,4.80
2018-07-14T10:31:14.181Z,5.30
2018-07-14T10:33:42.882Z,4.70
2018-07-14T10:36:11.469Z,4.90
2018-07-14T10:38:40.229Z,4.70
2018-07-14T10:41:09.078Z,4.23
2018-07-14T10:43:37.722Z,3.60
2018-07-14T10:46:06.518Z,2.60
2018-07-14T10:48:35.241Z,3.50
2018-07-14T10:51:03.858Z,3.60
2018-07-14T10:53:32.526Z,3.23
2018-07-14T10:56:01.608Z,3.00
2018-07-14T10:58:31.323Z,3.83
2018-07-14T11:01:00.113Z,3.73
2018-07-14T11:03:28.757Z,2.77
2018-07-14T11:05:57.391Z,3.33
2018-07-14T11:08:26.083Z,3.23
2018-07-14T11:10:54.773Z,3.20
2018-07-14T11:13:23.450Z,3.10
2018-07-14T11:15:52.097Z,3.50
2018-07-14T11:18:21.273Z,2.90
2018-07-14T11:20:49.947Z,2.87
2018-07-14T11:23:18.792Z,3.00
2018-07-14T11:25:47.421Z,3.43
2018-07-14T11:28:16.059Z,3.20
2018-07-14T11:30:44.829Z,2.80
2018-07-14T11:33:13.481Z,3.00
2018-07-14T11:35:42.070Z,2.70
2018-07-14T11:38:10.745Z,2.90
2018-07-14T11:40:39.359Z,2.83
2018-07-14T11:43:07.986Z,2.70
2018-07-14T11:45:36.583Z,2.27
2018-07-14T11:48:05.176Z,2.63
2018-07-14T11:50:33.854Z,2.53
2018-07-14T11:53:02.462Z,2.93
2018-07-14T11:55:31.118Z,2.80
2018-07-14T11:57:59.945Z,2.80
2018-07-14T12:00:28.584Z,2.80
2018-07-14T12:02:57.172Z,3.00
2018-07-14T12:05:25.814Z,2.90
2018-07-14T12:07:54.462Z,2.90
2018-07-14T12:10:23.097Z,3.00
2018-07-14T12:12:51.831Z,2.77
2018-07-14T12:15:20.426Z,2.80
2018-07-14T12:17:49.046Z,2.80
2018-07-14T12:20:17.655Z,3.13
2018-07-14T12:22:46.242Z,3.20
2018-07-14T12:25:14.815Z,3.20
2018-07-14T12:27:43.457Z,2.67
2018-07-14T12:30:12.140Z,3.20
2018-07-14T12:32:40.731Z,2.70
2018-07-14T12:35:09.426Z,3.20
2018-07-14T12:37:37.997Z,3.43
2018-07-14T12:40:06.865Z,3.47
2018-07-14T12:42:35.547Z,3.03
2018-07-14T12:45:04.239Z,2.70
2018-07-14T12:47:32.830Z,3.00
2018-07-14T12:50:01.463Z,2.63
2018-07-14T12:52:30.122Z,2.80
2018-07-14T12:54:58.754Z,2.53
2018-07-14T12:57:28.158Z,2.70
2018-07-14T12:59:57.095Z,2.77
2018-07-14T13:02:26.755Z,2.50
2018-07-14T13:04:55.425Z,2.50
2018-07-14T13:07:24.705Z,3.20
2018-07-14T13:09:53.675Z,2.87
2018-07-14T13:12:22.481Z,2.30
2018-07-14T13:14:51.201Z,1.63
2018-07-14T13:17:19.897Z,1.60
2018-07-14T13:19:48.620Z,2.17
2018-07-14T13:22:17.449Z,1.63
2018-07-14T13:24:46.074Z,1.80
2018-07-14T13:27:14.730Z,1.90
2018-07-14T13:29:43.397Z,1.60
2018-07-14T13:32:12.105Z,1.57
2018-07-14T13:34:40.700Z,1.80
2018-07-14T13:37:09.960Z,1.97
2018-07-14T13:39:38.564Z,3.27
2018-07-14T13:42:07.261Z,3.30
2018-07-14T13:44:35.861Z,4.43
2018-07-14T13:47:04.461Z,3.43
2018-07-14T13:49:33.203Z,3.27
2018-07-14T13:52:01.818Z,3.90
2018-07-14T13:54:30.454Z,3.97
2018-07-14T13:56:59.814Z,3.53
2018-07-14T13:59:28.430Z,3.40
2018-07-14T14:01:57.009Z,3.60
2018-07-14T14:04:25.615Z,3.43
2018-07-14T14:06:54.206Z,3.27
2018-07-14T14:09:22.831Z,3.17
2018-07-14T14:11:51.473Z,3.10
2018-07-14T14:14:20.101Z,3.10
2018-07-14T14:16:48.727Z,2.70
2018-07-14T14:19:17.421Z,2.50
2018-07-14T14:21:46.737Z,3.00
2018-07-14T14:24:15.421Z,2.53
2018-07-14T14:26:44.088Z,2.50
2018-07-14T14:29:13.352Z,2.17
2018-07-14T14:31:42.033Z,2.30
2018-07-14T14:34:11.234Z,2.40
2018-07-14T14:36:39.943Z,2.77
2018-07-14T14:39:09.657Z,2.80
2018-07-14T14:41:38.341Z,2.70
2018-07-14T14:44:07.040Z,2.80
2018-07-14T14:46:35.779Z,2.77
2018-07-14T14:49:04.544Z,2.93
2018-07-14T14:51:33.254Z,2.80
2018-07-14T14:54:01.886Z,2.93
2018-07-14T14:56:30.529Z,2.23
2018-07-14T14:58:59.157Z,2.20
2018-07-14T15:01:27.769Z,2.47
2018-07-14T15:03:56.427Z,1.90
2018-07-14T15:06:25.066Z,2.07
2018-07-14T15:08:53.785Z,1.20
2018-07-14T15:11:22.418Z,1.40
2018-07-14T15:13:51.001Z,1.77
2018-07-14T15:16:19.634Z,2.00
2018-07-14T15:18:48.275Z,2.37
2018-07-14T15:21:16.870Z,2.80
2018-07-14T15:23:45.490Z,3.30
2018-07-14T15:26:14.198Z,2.87
2018-07-14T15:28:42.997Z,3.00
2018-07-14T15:31:11.631Z,3.33
2018-07-14T15:33:40.271Z,2.70
2018-07-14T15:36:08.934Z,3.33
2018-07-14T15:38:37.572Z,2.83
2018-07-14T15:41:06.573Z,3.10
2018-07-14T15:43:35.263Z,2.50
2018-07-14T15:46:03.870Z,2.83
2018-07-14T15:48:32.519Z,3.17
2018-07-14T15:51:01.837Z,2.33
2018-07-14T15:53:30.534Z,1.83
2018-07-14T15:55:59.184Z,2.17
2018-07-14T15:58:28.289Z,2.40
2018-07-14T16:00:56.897Z,2.60
2018-07-14T16:03:25.502Z,2.40
2018-07-14T16:05:54.134Z,2.00
2018-07-14T16:08:22.746Z,2.03
2018-07-14T16:10:51.542Z,2.20
2018-07-14T16:13:20.150Z,2.00
2018-07-14T16:15:48.783Z,2.00
2018-07-14T16:18:17.445Z,1.90
2018-07-14T16:20:46.090Z,2.30
2018-07-14T16:23:14.691Z,1.50
2018-07-14T16:25:43.336Z,1.55
2018-07-14T16:28:11.981Z,1.80
2018-07-14T16:30:41.326Z,1.90
2018-07-14T16:33:10.055Z,1.90
2018-07-14T16:35:38.756Z,1.70
2018-07-14T16:38:07.334Z,1.70
2018-07-14T16:40:36.120Z,2.00
2018-07-14T16:43:05.122Z,1.80
2018-07-14T16:45:34.394Z,1.87
2018-07-14T16:48:03.046Z,1.70
2018-07-14T16:50:31.639Z,1.80
2018-07-14T16:53:00.269Z,2.05
2018-07-14T16:55:28.957Z,1.82
2018-07-14T16:57:57.560Z,2.05
2018-07-14T17:00:26.210Z,2.05
2018-07-14T17:02:54.826Z,1.70
2018-07-14T17:05:23.435Z,2.17
2018-07-14T17:07:52.354Z,2.05
2018-07-14T17:10:20.967Z,2.17
2018-07-14T17:12:49.641Z,2.23
2018-07-14T17:15:18.504Z,2.30
2018-07-14T17:17:47.343Z,2.00
2018-07-14T17:20:16.198Z,2.17
2018-07-14T17:22:44.796Z,2.00
2018-07-14T17:25:13.518Z,2.17
2018-07-14T17:27:42.690Z,2.53
2018-07-14T17:30:11.346Z,1.50
2018-07-14T17:32:39.952Z,1.77
2018-07-14T17:35:08.638Z,1.63
2018-07-14T17:37:37.305Z,1.73
2018-07-14T17:40:05.971Z,1.70
2018-07-14T17:42:34.689Z,1.77
2018-07-14T17:45:03.362Z,2.00
2018-07-14T17:47:32.010Z,2.50
2018-07-14T17:50:00.746Z,2.50
2018-07-14T17:52:29.437Z,2.90
2018-07-14T17:54:58.083Z,2.43
2018-07-14T17:57:26.706Z,2.80
2018-07-14T17:59:55.443Z,2.83
2018-07-14T18:02:24.160Z,2.70
2018-07-14T18:04:52.814Z,2.90
2018-07-14T18:07:21.442Z,3.63
2018-07-14T18:09:50.085Z,3.70
2018-07-14T18:12:18.756Z,3.20
2018-07-14T18:14:47.438Z,3.43
2018-07-14T18:17:16.834Z,3.50
2018-07-14T18:19:46.124Z,3.10
2018-07-14T18:22:14.794Z,3.50
2018-07-14T18:24:43.407Z,3.70
2018-07-14T18:27:12.065Z,3.70
2018-07-14T18:29:40.738Z,2.90
2018-07-14T18:32:09.977Z,3.60
2018-07-14T18:34:38.651Z,3.93
2018-07-14T18:37:07.265Z,3.73
2018-07-14T18:39:35.917Z,3.83
2018-07-14T18:42:05.242Z,4.13
2018-07-14T18:44:33.914Z,4.07
2018-07-14T18:47:02.597Z,4.23
2018-07-14T18:49:31.282Z,4.00
2018-07-14T18:51:59.951Z,4.33
2018-07-14T18:54:28.638Z,4.30
2018-07-14T18:56:57.383Z,4.10
2018-07-14T18:59:26.039Z,3.83
2018-07-14T19:01:54.697Z,4.67
2018-07-14T19:04:23.482Z,4.57
2018-07-14T19:06:52.157Z,5.40
2018-07-14T19:09:20.862Z,5.37
2018-07-14T19:11:49.523Z,5.63
2018-07-14T19:14:18.158Z,4.87
2018-07-14T19:16:47.455Z,4.93
2018-07-14T19:19:16.145Z,4.80
2018-07-14T19:21:44.877Z,4.47
2018-07-14T19:24:13.571Z,5.60
2018-07-14T19:26:42.210Z,7.50
2018-07-14T19:29:10.846Z,6.63
2018-07-14T19:31:39.626Z,6.13
2018-07-14T19:34:08.417Z,5.10
2018-07-14T19:36:37.153Z,5.50
2018-07-14T19:39:07.062Z,5.00
2018-07-14T19:41:35.761Z,5.30
2018-07-14T19:44:04.630Z,5.27
2018-07-14T19:46:35.128Z,4.40
2018-07-14T19:49:04.316Z,4.80
2018-07-14T19:51:34.289Z,4.90
2018-07-14T19:54:02.945Z,5.30
2018-07-14T19:56:31.565Z,5.37
2018-07-14T19:59:00.186Z,4.87
2018-07-14T20:01:28.769Z,4.40
2018-07-14T20:03:57.383Z,5.00
2018-07-14T20:06:26.115Z,5.50
2018-07-14T20:08:54.794Z,4.93
2018-07-14T20:11:24.920Z,5.70
2018-07-14T20:13:53.563Z,4.90
2018-07-14T20:16:22.164Z,5.00
2018-07-14T20:18:50.800Z,5.87
2018-07-14T20:21:19.415Z,5.30
2018-07-14T20:23:47.992Z,4.97
2018-07-14T20:26:16.707Z,6.10
2018-07-14T20:28:45.409Z,6.30
2018-07-14T20:31:14.094Z,6.00
2018-07-14T20:33:42.815Z,5.70
2018-07-14T20:36:11.467Z,5.60
2018-07-14T20:38:40.089Z,6.33
2018-07-14T20:41:08.739Z,5.30
2018-07-14T20:43:37.439Z,5.07
2018-07-14T20:46:06.422Z,5.37
2018-07-14T20:48:35.245Z,5.65
2018-07-14T20:51:03.870Z,5.80
2018-07-14T20:53:32.472Z,5.70
2018-07-14T20:56:01.475Z,5.13
2018-07-14T20:58:30.097Z,5.30
2018-07-14T21:00:58.715Z,4.80
2018-07-14T21:03:27.349Z,5.13
2018-07-14T21:05:56.377Z,4.90
2018-07-14T21:08:25.086Z,5.53
2018-07-14T21:10:53.714Z,4.83
2018-07-14T21:13:22.361Z,5.73
2018-07-14T21:15:51.055Z,5.10
2018-07-14T21:18:19.672Z,5.60
2018-07-14T21:20:48.432Z,5.43
2018-07-14T21:23:16.978Z,5.60
2018-07-14T21:25:45.892Z,5.10
2018-07-14T21:28:14.589Z,5.30
2018-07-14T21:30:43.208Z,4.90
2018-07-14T21:33:12.121Z,5.23
2018-07-14T21:35:42.749Z,5.90
2018-07-14T21:38:14.521Z,5.70
2018-07-14T21:40:43.185Z,5.30
2018-07-14T21:43:11.825Z,5.37
2018-07-14T21:45:40.741Z,5.67
2018-07-14T21:48:09.422Z,5.40
2018-07-14T21:50:38.177Z,6.43
2018-07-14T21:53:07.158Z,5.70
2018-07-14T21:55:36.767Z,5.43
2018-07-14T21:58:05.519Z,5.47
2018-07-14T22:00:39.212Z,6.00
2018-07-14T22:03:08.760Z,5.60
2018-07-14T22:05:37.953Z,5.73
2018-07-14T22:08:06.626Z,5.00
2018-07-14T22:10:35.375Z,5.93
2018-07-14T22:13:04.069Z,5.60
2018-07-14T22:15:32.873Z,5.03
2018-07-14T22:18:01.516Z,5.17
2018-07-14T22:20:30.154Z,4.70
2018-07-14T22:22:58.782Z,4.73
2018-07-14T22:25:27.797Z,5.20
2018-07-14T22:27:56.447Z,4.43
2018-07-14T22:30:25.110Z,5.60
2018-07-14T22:32:53.786Z,4.93
2018-07-14T22:35:22.461Z,4.80
2018-07-14T22:37:51.065Z,4.67
2018-07-14T22:40:19.680Z,4.90
2018-07-14T22:42:48.861Z,4.60
2018-07-14T22:45:17.479Z,5.07
2018-07-14T22:47:46.078Z,4.70
2018-07-14T22:50:14.705Z,4.70
2018-07-14T22:52:43.340Z,4.50
2018-07-14T22:55:12.455Z,4.97
2018-07-14T22:57:41.162Z,4.30
2018-07-14T23:00:09.969Z,4.97
2018-07-14T23:02:38.597Z,4.47
2018-07-14T23:05:07.222Z,4.97
2018-07-14T23:07:35.869Z,4.80
2018-07-14T23:10:04.583Z,4.90
2018-07-14T23:12:33.170Z,4.90
2018-07-14T23:15:02.086Z,4.50
2018-07-14T23:17:30.741Z,4.80
2018-07-14T23:19:59.403Z,4.67
2018-07-14T23:22:28.018Z,4.67
2018-07-14T23:24:56.605Z,4.37
2018-07-14T23:27:25.452Z,5.00
2018-07-14T23:29:54.141Z,4.53
2018-07-14T23:32:22.826Z,4.37
2018-07-14T23:34:51.454Z,4.40
2018-07-14T23:37:20.117Z,4.07
2018-07-14T23:39:48.781Z,4.40
2018-07-14T23:42:17.437Z,3.80
2018-07-14T23:44:46.203Z,4.10
2018-07-14T23:47:14.839Z,4.80
2018-07-14T23:49:43.453Z,4.80
2018-07-14T23:52:12.085Z,5.20
2018-07-14T23:54:40.927Z,4.37
2018-07-14T23:57:10.737Z,5.33
2018-07-14T23:59:39.351Z,4.90
